sensor_id;sensor_type;location;lat;lon;timestamp;P1;durP1;ratioP1;P2;durP2;ratioP2
30874;SDS011;17581;43.222;27.924;2023-01-04T00:01:13;45.72;;;28.65;;
30874;SDS011;17581;43.222;27.924;2023-01-04T00:03:40;53.58;;;30.33;;
30874;SDS011;17581;43.222;27.924;2023-01-04T00:06:06;45.35;;;27.55;;
30874;SDS011;17581;43.222;27.924;2023-01-04T00:08:34;50.55;;;29.17;;
30874;SDS011;17581;43.222;27.924;2023-01-04T00:11:03;45.35;;;28.60;;
30874;SDS011;17581;43.222;27.924;2023-01-04T00:13:30;49.50;;;28.83;;
30874;SDS011;17581;43.222;27.924;2023-01-04T00:15:57;50.30;;;28.90;;
30874;SDS011;17581;43.222;27.924;2023-01-04T00:18:23;46.50;;;28.80;;
30874;SDS011;17581;43.222;27.924;2023-01-04T00:20:48;46.28;;;27.40;;
30874;SDS011;17581;43.222;27.924;2023-01-04T00:23:13;47.08;;;26.65;;
30874;SDS011;17581;43.222;27.924;2023-01-04T00:25:39;49.67;;;29.23;;
30874;SDS011;17581;43.222;27.924;2023-01-04T00:28:05;59.15;;;29.95;;
30874;SDS011;17581;43.222;27.924;2023-01-04T00:30:30;51.00;;;30.42;;
30874;SDS011;17581;43.222;27.924;2023-01-04T00:32:56;46.25;;;28.15;;
30874;SDS011;17581;43.222;27.924;2023-01-04T00:35:23;47.67;;;27.90;;
30874;SDS011;17581;43.222;27.924;2023-01-04T00:37:48;44.13;;;28.75;;
30874;SDS011;17581;43.222;27.924;2023-01-04T00:40:14;43.97;;;28.77;;
30874;SDS011;17581;43.222;27.924;2023-01-04T00:42:39;45.10;;;27.25;;
30874;SDS011;17581;43.222;27.924;2023-01-04T00:45:05;47.58;;;27.75;;
30874;SDS011;17581;43.222;27.924;2023-01-04T00:47:30;41.35;;;26.02;;
30874;SDS011;17581;43.222;27.924;2023-01-04T00:49:56;46.95;;;27.88;;
30874;SDS011;17581;43.222;27.924;2023-01-04T00:52:21;47.92;;;27.98;;
30874;SDS011;17581;43.222;27.924;2023-01-04T00:54:47;46.05;;;28.77;;
30874;SDS011;17581;43.222;27.924;2023-01-04T00:57:12;46.00;;;26.77;;
30874;SDS011;17581;43.222;27.924;2023-01-04T00:59:38;43.03;;;26.58;;
30874;SDS011;17581;43.222;27.924;2023-01-04T01:02:03;42.75;;;28.63;;
30874;SDS011;17581;43.222;27.924;2023-01-04T01:04:28;50.42;;;28.02;;
30874;SDS011;17581;43.222;27.924;2023-01-04T01:06:54;57.22;;;29.83;;
30874;SDS011;17581;43.222;27.924;2023-01-04T01:09:21;45.50;;;29.08;;
30874;SDS011;17581;43.222;27.924;2023-01-04T01:11:48;47.80;;;30.10;;
30874;SDS011;17581;43.222;27.924;2023-01-04T01:14:17;42.28;;;28.40;;
30874;SDS011;17581;43.222;27.924;2023-01-04T01:16:45;50.90;;;28.25;;
30874;SDS011;17581;43.222;27.924;2023-01-04T01:19:11;46.05;;;27.65;;
30874;SDS011;17581;43.222;27.924;2023-01-04T01:21:37;50.03;;;29.70;;
30874;SDS011;17581;43.222;27.924;2023-01-04T01:24:03;48.03;;;28.27;;
30874;SDS011;17581;43.222;27.924;2023-01-04T01:26:28;52.88;;;25.77;;
30874;SDS011;17581;43.222;27.924;2023-01-04T01:28:54;44.38;;;28.23;;
30874;SDS011;17581;43.222;27.924;2023-01-04T01:31:24;42.08;;;26.95;;
30874;SDS011;17581;43.222;27.924;2023-01-04T01:33:51;57.53;;;29.65;;
30874;SDS011;17581;43.222;27.924;2023-01-04T01:36:19;51.00;;;28.55;;
30874;SDS011;17581;43.222;27.924;2023-01-04T01:38:46;47.83;;;28.60;;
30874;SDS011;17581;43.222;27.924;2023-01-04T01:41:17;49.90;;;27.10;;
30874;SDS011;17581;43.222;27.924;2023-01-04T01:46:51;44.03;;;28.27;;
30874;SDS011;17581;43.222;27.924;2023-01-04T01:51:49;42.95;;;28.13;;
30874;SDS011;17581;43.222;27.924;2023-01-04T01:54:19;47.88;;;26.42;;
30874;SDS011;17581;43.222;27.924;2023-01-04T01:56:54;46.78;;;29.25;;
30874;SDS011;17581;43.222;27.924;2023-01-04T01:59:22;49.72;;;29.08;;
30874;SDS011;17581;43.222;27.924;2023-01-04T02:01:49;46.78;;;28.02;;
30874;SDS011;17581;43.222;27.924;2023-01-04T02:04:14;52.22;;;29.65;;
30874;SDS011;17581;43.222;27.924;2023-01-04T02:06:42;45.10;;;29.13;;
30874;SDS011;17581;43.222;27.924;2023-01-04T02:09:12;46.30;;;30.23;;
30874;SDS011;17581;43.222;27.924;2023-01-04T02:11:38;53.22;;;31.30;;
30874;SDS011;17581;43.222;27.924;2023-01-04T02:14:04;51.88;;;29.83;;
30874;SDS011;17581;43.222;27.924;2023-01-04T02:16:57;56.28;;;29.75;;
30874;SDS011;17581;43.222;27.924;2023-01-04T02:32:53;53.45;;;30.02;;
30874;SDS011;17581;43.222;27.924;2023-01-04T02:38:18;47.15;;;28.88;;
30874;SDS011;17581;43.222;27.924;2023-01-04T02:46:50;52.05;;;30.95;;
30874;SDS011;17581;43.222;27.924;2023-01-04T02:49:21;56.63;;;32.58;;
30874;SDS011;17581;43.222;27.924;2023-01-04T02:52:06;56.53;;;32.72;;
30874;SDS011;17581;43.222;27.924;2023-01-04T02:54:32;54.50;;;31.42;;
30874;SDS011;17581;43.222;27.924;2023-01-04T03:05:25;49.75;;;30.02;;
30874;SDS011;17581;43.222;27.924;2023-01-04T03:10:57;67.30;;;34.20;;
30874;SDS011;17581;43.222;27.924;2023-01-04T03:13:34;62.78;;;34.20;;
30874;SDS011;17581;43.222;27.924;2023-01-04T03:16:10;61.95;;;34.53;;
30874;SDS011;17581;43.222;27.924;2023-01-04T03:18:42;58.25;;;32.30;;
30874;SDS011;17581;43.222;27.924;2023-01-04T03:21:12;56.38;;;33.08;;
30874;SDS011;17581;43.222;27.924;2023-01-04T03:23:39;62.80;;;32.95;;
30874;SDS011;17581;43.222;27.924;2023-01-04T03:26:27;56.05;;;33.10;;
30874;SDS011;17581;43.222;27.924;2023-01-04T03:29:38;61.72;;;34.67;;
30874;SDS011;17581;43.222;27.924;2023-01-04T03:32:31;68.80;;;38.53;;
30874;SDS011;17581;43.222;27.924;2023-01-04T03:35:23;60.50;;;35.95;;
30874;SDS011;17581;43.222;27.924;2023-01-04T03:47:33;57.50;;;29.98;;
30874;SDS011;17581;43.222;27.924;2023-01-04T03:50:30;55.30;;;29.80;;
30874;SDS011;17581;43.222;27.924;2023-01-04T03:53:04;53.50;;;31.90;;
30874;SDS011;17581;43.222;27.924;2023-01-04T03:55:31;51.22;;;30.02;;
30874;SDS011;17581;43.222;27.924;2023-01-04T03:58:00;51.55;;;28.48;;
30874;SDS011;17581;43.222;27.924;2023-01-04T04:00:26;43.50;;;27.73;;
30874;SDS011;17581;43.222;27.924;2023-01-04T04:02:51;58.85;;;29.70;;
30874;SDS011;17581;43.222;27.924;2023-01-04T04:05:21;54.85;;;28.23;;
30874;SDS011;17581;43.222;27.924;2023-01-04T04:08:06;47.53;;;28.48;;
30874;SDS011;17581;43.222;27.924;2023-01-04T04:10:50;52.35;;;28.00;;
30874;SDS011;17581;43.222;27.924;2023-01-04T04:13:16;60.10;;;28.95;;
30874;SDS011;17581;43.222;27.924;2023-01-04T04:15:41;57.78;;;30.63;;
30874;SDS011;17581;43.222;27.924;2023-01-04T04:18:07;67.95;;;30.08;;
30874;SDS011;17581;43.222;27.924;2023-01-04T04:20:32;48.60;;;27.95;;
30874;SDS011;17581;43.222;27.924;2023-01-04T04:22:58;54.60;;;29.63;;
30874;SDS011;17581;43.222;27.924;2023-01-04T04:25:23;55.70;;;31.02;;
30874;SDS011;17581;43.222;27.924;2023-01-04T04:27:49;55.33;;;30.08;;
30874;SDS011;17581;43.222;27.924;2023-01-04T04:30:14;50.15;;;28.25;;
30874;SDS011;17581;43.222;27.924;2023-01-04T04:32:40;52.15;;;28.60;;
30874;SDS011;17581;43.222;27.924;2023-01-04T04:35:06;43.38;;;26.75;;
30874;SDS011;17581;43.222;27.924;2023-01-04T04:37:32;59.42;;;31.02;;
30874;SDS011;17581;43.222;27.924;2023-01-04T04:39:59;54.13;;;32.22;;
30874;SDS011;17581;43.222;27.924;2023-01-04T04:42:24;62.03;;;33.53;;
30874;SDS011;17581;43.222;27.924;2023-01-04T04:44:50;59.45;;;32.10;;
30874;SDS011;17581;43.222;27.924;2023-01-04T04:47:15;47.30;;;29.38;;
30874;SDS011;17581;43.222;27.924;2023-01-04T04:49:41;61.13;;;27.60;;
30874;SDS011;17581;43.222;27.924;2023-01-04T04:52:06;41.25;;;25.50;;
30874;SDS011;17581;43.222;27.924;2023-01-04T04:54:32;47.60;;;25.40;;
30874;SDS011;17581;43.222;27.924;2023-01-04T04:56:57;37.20;;;23.10;;
30874;SDS011;17581;43.222;27.924;2023-01-04T04:59:23;36.33;;;22.05;;
30874;SDS011;17581;43.222;27.924;2023-01-04T05:01:48;38.08;;;22.77;;
30874;SDS011;17581;43.222;27.924;2023-01-04T05:04:14;44.88;;;22.30;;
30874;SDS011;17581;43.222;27.924;2023-01-04T05:06:47;39.45;;;23.38;;
30874;SDS011;17581;43.222;27.924;2023-01-04T05:09:13;39.92;;;21.70;;
30874;SDS011;17581;43.222;27.924;2023-01-04T05:11:40;37.15;;;22.15;;
30874;SDS011;17581;43.222;27.924;2023-01-04T05:14:25;35.15;;;21.40;;
30874;SDS011;17581;43.222;27.924;2023-01-04T05:16:51;41.90;;;23.33;;
30874;SDS011;17581;43.222;27.924;2023-01-04T05:19:16;40.90;;;22.88;;
30874;SDS011;17581;43.222;27.924;2023-01-04T05:21:42;35.38;;;21.63;;
30874;SDS011;17581;43.222;27.924;2023-01-04T05:24:08;45.33;;;24.23;;
30874;SDS011;17581;43.222;27.924;2023-01-04T05:26:35;46.80;;;24.17;;
30874;SDS011;17581;43.222;27.924;2023-01-04T05:29:01;34.58;;;22.20;;
30874;SDS011;17581;43.222;27.924;2023-01-04T05:31:26;38.10;;;21.85;;
30874;SDS011;17581;43.222;27.924;2023-01-04T05:33:52;31.23;;;20.85;;
30874;SDS011;17581;43.222;27.924;2023-01-04T05:36:17;37.53;;;23.80;;
30874;SDS011;17581;43.222;27.924;2023-01-04T05:38:42;36.83;;;21.25;;
30874;SDS011;17581;43.222;27.924;2023-01-04T05:41:08;48.65;;;22.00;;
30874;SDS011;17581;43.222;27.924;2023-01-04T05:43:54;39.60;;;20.65;;
30874;SDS011;17581;43.222;27.924;2023-01-04T05:46:19;31.05;;;20.55;;
30874;SDS011;17581;43.222;27.924;2023-01-04T05:48:45;41.90;;;20.25;;
30874;SDS011;17581;43.222;27.924;2023-01-04T05:51:11;37.42;;;21.67;;
30874;SDS011;17581;43.222;27.924;2023-01-04T05:53:36;39.00;;;20.38;;
30874;SDS011;17581;43.222;27.924;2023-01-04T05:56:02;45.22;;;20.67;;
30874;SDS011;17581;43.222;27.924;2023-01-04T05:58:27;46.85;;;23.58;;
30874;SDS011;17581;43.222;27.924;2023-01-04T06:00:54;40.90;;;21.70;;
30874;SDS011;17581;43.222;27.924;2023-01-04T06:03:19;32.92;;;21.52;;
30874;SDS011;17581;43.222;27.924;2023-01-04T06:05:51;42.60;;;22.45;;
30874;SDS011;17581;43.222;27.924;2023-01-04T06:08:18;43.03;;;23.13;;
30874;SDS011;17581;43.222;27.924;2023-01-04T06:10:43;36.55;;;19.50;;
30874;SDS011;17581;43.222;27.924;2023-01-04T06:13:09;53.25;;;23.05;;
30874;SDS011;17581;43.222;27.924;2023-01-04T06:15:34;39.97;;;21.73;;
30874;SDS011;17581;43.222;27.924;2023-01-04T06:18:00;54.08;;;23.25;;
30874;SDS011;17581;43.222;27.924;2023-01-04T06:20:25;39.55;;;20.73;;
30874;SDS011;17581;43.222;27.924;2023-01-04T06:22:50;36.03;;;19.48;;
30874;SDS011;17581;43.222;27.924;2023-01-04T06:25:16;63.30;;;23.45;;
30874;SDS011;17581;43.222;27.924;2023-01-04T06:27:42;54.70;;;25.98;;
30874;SDS011;17581;43.222;27.924;2023-01-04T06:30:07;58.92;;;30.42;;
30874;SDS011;17581;43.222;27.924;2023-01-04T06:32:33;77.53;;;34.67;;
30874;SDS011;17581;43.222;27.924;2023-01-04T06:34:59;66.10;;;38.45;;
30874;SDS011;17581;43.222;27.924;2023-01-04T06:37:24;82.80;;;40.58;;
30874;SDS011;17581;43.222;27.924;2023-01-04T06:39:50;84.82;;;44.17;;
30874;SDS011;17581;43.222;27.924;2023-01-04T06:42:15;77.47;;;40.25;;
30874;SDS011;17581;43.222;27.924;2023-01-04T06:45:01;72.82;;;39.58;;
30874;SDS011;17581;43.222;27.924;2023-01-04T06:47:26;84.35;;;41.60;;
30874;SDS011;17581;43.222;27.924;2023-01-04T06:49:52;89.78;;;42.60;;
30874;SDS011;17581;43.222;27.924;2023-01-04T06:52:17;102.88;;;39.95;;
30874;SDS011;17581;43.222;27.924;2023-01-04T06:54:43;94.72;;;40.72;;
30874;SDS011;17581;43.222;27.924;2023-01-04T06:57:08;76.10;;;40.38;;
30874;SDS011;17581;43.222;27.924;2023-01-04T06:59:34;73.15;;;40.85;;
30874;SDS011;17581;43.222;27.924;2023-01-04T07:01:59;92.90;;;41.85;;
30874;SDS011;17581;43.222;27.924;2023-01-04T07:04:25;76.57;;;39.67;;
30874;SDS011;17581;43.222;27.924;2023-01-04T07:06:50;84.57;;;39.63;;
30874;SDS011;17581;43.222;27.924;2023-01-04T07:09:15;84.03;;;40.05;;
30874;SDS011;17581;43.222;27.924;2023-01-04T07:11:41;88.28;;;43.90;;
30874;SDS011;17581;43.222;27.924;2023-01-04T07:14:06;88.55;;;42.60;;
30874;SDS011;17581;43.222;27.924;2023-01-04T07:16:32;96.88;;;42.33;;
30874;SDS011;17581;43.222;27.924;2023-01-04T07:18:57;81.22;;;46.45;;
30874;SDS011;17581;43.222;27.924;2023-01-04T07:21:23;91.70;;;47.15;;
30874;SDS011;17581;43.222;27.924;2023-01-04T07:23:50;92.38;;;43.35;;
30874;SDS011;17581;43.222;27.924;2023-01-04T07:26:16;79.25;;;39.53;;
30874;SDS011;17581;43.222;27.924;2023-01-04T07:28:41;67.50;;;38.47;;
30874;SDS011;17581;43.222;27.924;2023-01-04T07:31:25;78.32;;;41.25;;
30874;SDS011;17581;43.222;27.924;2023-01-04T07:33:51;70.95;;;37.17;;
30874;SDS011;17581;43.222;27.924;2023-01-04T07:36:16;67.93;;;36.08;;
30874;SDS011;17581;43.222;27.924;2023-01-04T07:38:42;55.78;;;33.78;;
30874;SDS011;17581;43.222;27.924;2023-01-04T07:41:07;63.88;;;35.55;;
30874;SDS011;17581;43.222;27.924;2023-01-04T07:43:33;59.67;;;32.75;;
30874;SDS011;17581;43.222;27.924;2023-01-04T07:45:58;57.72;;;31.60;;
30874;SDS011;17581;43.222;27.924;2023-01-04T07:48:24;65.60;;;31.13;;
30874;SDS011;17581;43.222;27.924;2023-01-04T07:50:49;75.57;;;35.88;;
30874;SDS011;17581;43.222;27.924;2023-01-04T07:53:15;53.55;;;32.67;;
30874;SDS011;17581;43.222;27.924;2023-01-04T07:55:40;69.28;;;32.05;;
30874;SDS011;17581;43.222;27.924;2023-01-04T07:58:06;66.90;;;31.92;;
30874;SDS011;17581;43.222;27.924;2023-01-04T08:00:31;70.53;;;33.33;;
30874;SDS011;17581;43.222;27.924;2023-01-04T08:02:57;69.10;;;38.25;;
30874;SDS011;17581;43.222;27.924;2023-01-04T08:05:22;91.38;;;39.17;;
30874;SDS011;17581;43.222;27.924;2023-01-04T08:07:49;72.55;;;37.03;;
30874;SDS011;17581;43.222;27.924;2023-01-04T08:10:15;58.97;;;38.30;;
30874;SDS011;17581;43.222;27.924;2023-01-04T08:12:41;80.07;;;40.65;;
30874;SDS011;17581;43.222;27.924;2023-01-04T08:15:06;72.28;;;38.10;;
30874;SDS011;17581;43.222;27.924;2023-01-04T08:17:32;78.97;;;38.63;;
30874;SDS011;17581;43.222;27.924;2023-01-04T08:19:58;74.80;;;39.25;;
30874;SDS011;17581;43.222;27.924;2023-01-04T08:22:25;73.90;;;37.33;;
30874;SDS011;17581;43.222;27.924;2023-01-04T08:24:51;91.15;;;43.58;;
30874;SDS011;17581;43.222;27.924;2023-01-04T08:27:16;67.10;;;38.72;;
30874;SDS011;17581;43.222;27.924;2023-01-04T08:29:41;75.13;;;35.15;;
30874;SDS011;17581;43.222;27.924;2023-01-04T08:32:07;82.68;;;37.00;;
30874;SDS011;17581;43.222;27.924;2023-01-04T08:34:32;88.65;;;39.53;;
30874;SDS011;17581;43.222;27.924;2023-01-04T08:36:58;105.13;;;41.15;;
30874;SDS011;17581;43.222;27.924;2023-01-04T08:39:23;69.60;;;35.80;;
30874;SDS011;17581;43.222;27.924;2023-01-04T08:41:49;76.47;;;36.97;;
30874;SDS011;17581;43.222;27.924;2023-01-04T08:44:20;79.82;;;32.38;;
30874;SDS011;17581;43.222;27.924;2023-01-04T08:46:47;83.72;;;35.60;;
30874;SDS011;17581;43.222;27.924;2023-01-04T08:49:14;58.60;;;31.13;;
30874;SDS011;17581;43.222;27.924;2023-01-04T08:51:40;39.63;;;19.98;;
30874;SDS011;17581;43.222;27.924;2023-01-04T08:54:06;25.30;;;13.88;;
30874;SDS011;17581;43.222;27.924;2023-01-04T08:56:31;51.10;;;21.85;;
30874;SDS011;17581;43.222;27.924;2023-01-04T08:58:57;24.52;;;14.00;;
30874;SDS011;17581;43.222;27.924;2023-01-04T09:01:22;26.17;;;13.95;;
30874;SDS011;17581;43.222;27.924;2023-01-04T09:03:48;28.90;;;14.38;;
30874;SDS011;17581;43.222;27.924;2023-01-04T09:06:14;39.25;;;15.65;;
30874;SDS011;17581;43.222;27.924;2023-01-04T09:08:40;26.48;;;13.32;;
30874;SDS011;17581;43.222;27.924;2023-01-04T09:11:08;42.58;;;15.63;;
30874;SDS011;17581;43.222;27.924;2023-01-04T09:13:38;32.65;;;16.55;;
30874;SDS011;17581;43.222;27.924;2023-01-04T09:16:05;31.88;;;14.27;;
30874;SDS011;17581;43.222;27.924;2023-01-04T09:18:32;51.78;;;17.55;;
30874;SDS011;17581;43.222;27.924;2023-01-04T09:20:58;28.65;;;15.23;;
30874;SDS011;17581;43.222;27.924;2023-01-04T09:23:27;30.98;;;16.88;;
30874;SDS011;17581;43.222;27.924;2023-01-04T09:25:55;36.90;;;15.65;;
30874;SDS011;17581;43.222;27.924;2023-01-04T09:28:20;43.28;;;15.95;;
30874;SDS011;17581;43.222;27.924;2023-01-04T09:30:46;32.83;;;17.08;;
30874;SDS011;17581;43.222;27.924;2023-01-04T09:33:11;23.15;;;13.73;;
30874;SDS011;17581;43.222;27.924;2023-01-04T09:35:37;28.73;;;14.90;;
30874;SDS011;17581;43.222;27.924;2023-01-04T09:38:02;29.90;;;13.73;;
30874;SDS011;17581;43.222;27.924;2023-01-04T09:40:32;47.58;;;16.00;;
30874;SDS011;17581;43.222;27.924;2023-01-04T09:43:13;35.03;;;16.35;;
30874;SDS011;17581;43.222;27.924;2023-01-04T09:45:43;30.42;;;13.80;;
30874;SDS011;17581;43.222;27.924;2023-01-04T09:48:15;39.58;;;16.77;;
30874;SDS011;17581;43.222;27.924;2023-01-04T09:53:18;35.17;;;13.75;;
30874;SDS011;17581;43.222;27.924;2023-01-04T09:55:52;23.52;;;12.40;;
30874;SDS011;17581;43.222;27.924;2023-01-04T09:58:23;33.40;;;14.07;;
30874;SDS011;17581;43.222;27.924;2023-01-04T10:06:05;30.73;;;14.27;;
30874;SDS011;17581;43.222;27.924;2023-01-04T10:08:33;35.95;;;13.70;;
30874;SDS011;17581;43.222;27.924;2023-01-04T10:21:58;20.88;;;11.10;;
30874;SDS011;17581;43.222;27.924;2023-01-04T10:27:18;35.72;;;12.60;;
30874;SDS011;17581;43.222;27.924;2023-01-04T10:33:00;29.58;;;11.52;;
30874;SDS011;17581;43.222;27.924;2023-01-04T10:35:34;30.75;;;12.25;;
30874;SDS011;17581;43.222;27.924;2023-01-04T10:38:02;33.35;;;10.88;;
30874;SDS011;17581;43.222;27.924;2023-01-04T10:40:36;27.20;;;12.18;;
30874;SDS011;17581;43.222;27.924;2023-01-04T10:43:05;21.60;;;11.05;;
30874;SDS011;17581;43.222;27.924;2023-01-04T11:01:27;23.42;;;10.85;;
30874;SDS011;17581;43.222;27.924;2023-01-04T11:06:29;34.38;;;10.88;;
30874;SDS011;17581;43.222;27.924;2023-01-04T11:09:06;32.75;;;9.40;;
30874;SDS011;17581;43.222;27.924;2023-01-04T11:11:42;16.67;;;10.20;;
30874;SDS011;17581;43.222;27.924;2023-01-04T11:14:09;43.83;;;12.13;;
30874;SDS011;17581;43.222;27.924;2023-01-04T11:16:36;18.05;;;10.32;;
30874;SDS011;17581;43.222;27.924;2023-01-04T11:19:06;21.23;;;9.98;;
30874;SDS011;17581;43.222;27.924;2023-01-04T11:21:42;35.17;;;12.15;;
30874;SDS011;17581;43.222;27.924;2023-01-04T11:24:15;31.00;;;12.40;;
30874;SDS011;17581;43.222;27.924;2023-01-04T11:26:41;38.92;;;12.10;;
30874;SDS011;17581;43.222;27.924;2023-01-04T11:32:10;20.23;;;11.20;;
30874;SDS011;17581;43.222;27.924;2023-01-04T11:34:43;21.65;;;10.90;;
30874;SDS011;17581;43.222;27.924;2023-01-04T11:37:27;19.42;;;10.73;;
30874;SDS011;17581;43.222;27.924;2023-01-04T11:40:16;31.83;;;11.82;;
30874;SDS011;17581;43.222;27.924;2023-01-04T11:42:43;19.52;;;10.50;;
30874;SDS011;17581;43.222;27.924;2023-01-04T11:45:23;34.40;;;12.52;;
30874;SDS011;17581;43.222;27.924;2023-01-04T11:47:59;40.83;;;11.95;;
30874;SDS011;17581;43.222;27.924;2023-01-04T11:53:02;29.63;;;11.95;;
30874;SDS011;17581;43.222;27.924;2023-01-04T11:55:51;26.27;;;10.18;;
30874;SDS011;17581;43.222;27.924;2023-01-04T11:58:31;119.97;;;18.83;;
30874;SDS011;17581;43.222;27.924;2023-01-04T12:00:56;18.42;;;10.27;;
30874;SDS011;17581;43.222;27.924;2023-01-04T12:03:30;34.35;;;10.75;;
30874;SDS011;17581;43.222;27.924;2023-01-04T12:05:58;31.20;;;11.73;;
30874;SDS011;17581;43.222;27.924;2023-01-04T12:08:28;30.13;;;12.93;;
30874;SDS011;17581;43.222;27.924;2023-01-04T12:10:57;20.45;;;9.55;;
30874;SDS011;17581;43.222;27.924;2023-01-04T12:13:25;22.35;;;10.05;;
30874;SDS011;17581;43.222;27.924;2023-01-04T12:18:25;25.60;;;10.40;;
30874;SDS011;17581;43.222;27.924;2023-01-04T12:20:52;19.45;;;10.20;;
30874;SDS011;17581;43.222;27.924;2023-01-04T12:23:18;28.10;;;9.98;;
30874;SDS011;17581;43.222;27.924;2023-01-04T12:25:44;32.63;;;12.15;;
30874;SDS011;17581;43.222;27.924;2023-01-04T12:28:31;34.65;;;11.73;;
30874;SDS011;17581;43.222;27.924;2023-01-04T12:36:15;30.60;;;11.48;;
30874;SDS011;17581;43.222;27.924;2023-01-04T12:41:22;31.02;;;11.25;;
30874;SDS011;17581;43.222;27.924;2023-01-04T12:43:48;20.30;;;12.45;;
30874;SDS011;17581;43.222;27.924;2023-01-04T13:02:28;29.92;;;15.30;;
30874;SDS011;17581;43.222;27.924;2023-01-04T13:05:01;33.78;;;12.50;;
30874;SDS011;17581;43.222;27.924;2023-01-04T13:10:35;22.80;;;13.38;;
30874;SDS011;17581;43.222;27.924;2023-01-04T13:18:35;23.88;;;12.27;;
30874;SDS011;17581;43.222;27.924;2023-01-04T13:23:49;20.42;;;11.00;;
30874;SDS011;17581;43.222;27.924;2023-01-04T13:34:38;28.60;;;11.40;;
30874;SDS011;17581;43.222;27.924;2023-01-04T13:37:25;30.10;;;13.38;;
30874;SDS011;17581;43.222;27.924;2023-01-04T13:39:59;27.15;;;11.55;;
30874;SDS011;17581;43.222;27.924;2023-01-04T13:42:29;19.15;;;9.73;;
30874;SDS011;17581;43.222;27.924;2023-01-04T13:47:41;39.58;;;13.05;;
30874;SDS011;17581;43.222;27.924;2023-01-04T13:53:02;29.95;;;12.98;;
30874;SDS011;17581;43.222;27.924;2023-01-04T13:55:29;22.30;;;10.80;;
30874;SDS011;17581;43.222;27.924;2023-01-04T14:00:27;37.90;;;11.20;;
30874;SDS011;17581;43.222;27.924;2023-01-04T14:03:14;22.15;;;11.90;;
30874;SDS011;17581;43.222;27.924;2023-01-04T14:05:43;16.73;;;9.30;;
30874;SDS011;17581;43.222;27.924;2023-01-04T14:08:13;25.40;;;10.20;;
30874;SDS011;17581;43.222;27.924;2023-01-04T14:11:01;27.20;;;11.27;;
30874;SDS011;17581;43.222;27.924;2023-01-04T14:13:44;35.72;;;17.17;;
30874;SDS011;17581;43.222;27.924;2023-01-04T14:16:12;22.88;;;12.57;;
30874;SDS011;17581;43.222;27.924;2023-01-04T14:18:39;30.05;;;15.13;;
30874;SDS011;17581;43.222;27.924;2023-01-04T14:21:13;21.95;;;10.82;;
30874;SDS011;17581;43.222;27.924;2023-01-04T14:23:40;18.10;;;11.48;;
30874;SDS011;17581;43.222;27.924;2023-01-04T14:26:05;62.88;;;13.23;;
30874;SDS011;17581;43.222;27.924;2023-01-04T14:28:32;34.28;;;11.98;;
30874;SDS011;17581;43.222;27.924;2023-01-04T14:41:50;50.60;;;15.50;;
30874;SDS011;17581;43.222;27.924;2023-01-04T14:44:21;25.20;;;11.48;;
30874;SDS011;17581;43.222;27.924;2023-01-04T14:46:53;21.90;;;12.02;;
30874;SDS011;17581;43.222;27.924;2023-01-04T14:49:19;30.05;;;11.75;;
30874;SDS011;17581;43.222;27.924;2023-01-04T14:51:59;33.90;;;12.70;;
30874;SDS011;17581;43.222;27.924;2023-01-04T14:54:33;45.97;;;13.30;;
30874;SDS011;17581;43.222;27.924;2023-01-04T14:56:59;24.70;;;11.88;;
30874;SDS011;17581;43.222;27.924;2023-01-04T14:59:24;35.47;;;12.05;;
30874;SDS011;17581;43.222;27.924;2023-01-04T15:01:51;30.92;;;13.73;;
30874;SDS011;17581;43.222;27.924;2023-01-04T15:04:17;31.50;;;12.98;;
30874;SDS011;17581;43.222;27.924;2023-01-04T15:06:50;25.05;;;13.00;;
30874;SDS011;17581;43.222;27.924;2023-01-04T15:09:17;25.73;;;13.02;;
30874;SDS011;17581;43.222;27.924;2023-01-04T15:11:43;36.28;;;13.43;;
30874;SDS011;17581;43.222;27.924;2023-01-04T15:14:08;42.78;;;14.07;;
30874;SDS011;17581;43.222;27.924;2023-01-04T15:16:34;22.40;;;12.82;;
30874;SDS011;17581;43.222;27.924;2023-01-04T15:18:59;23.17;;;12.90;;
30874;SDS011;17581;43.222;27.924;2023-01-04T15:21:24;42.15;;;16.15;;
30874;SDS011;17581;43.222;27.924;2023-01-04T15:23:50;32.20;;;13.65;;
30874;SDS011;17581;43.222;27.924;2023-01-04T15:26:15;26.77;;;15.27;;
30874;SDS011;17581;43.222;27.924;2023-01-04T15:28:41;27.33;;;16.23;;
30874;SDS011;17581;43.222;27.924;2023-01-04T15:31:07;36.38;;;15.35;;
30874;SDS011;17581;43.222;27.924;2023-01-04T15:33:35;43.78;;;16.77;;
30874;SDS011;17581;43.222;27.924;2023-01-04T15:36:01;30.90;;;16.45;;
30874;SDS011;17581;43.222;27.924;2023-01-04T15:38:28;33.63;;;15.43;;
30874;SDS011;17581;43.222;27.924;2023-01-04T15:41:07;28.80;;;16.58;;
30874;SDS011;17581;43.222;27.924;2023-01-04T15:43:57;42.97;;;17.52;;
30874;SDS011;17581;43.222;27.924;2023-01-04T15:46:22;22.90;;;15.35;;
30874;SDS011;17581;43.222;27.924;2023-01-04T15:48:48;30.67;;;17.27;;
30874;SDS011;17581;43.222;27.924;2023-01-04T15:51:13;35.58;;;17.40;;
30874;SDS011;17581;43.222;27.924;2023-01-04T15:53:39;33.28;;;17.08;;
30874;SDS011;17581;43.222;27.924;2023-01-04T15:56:05;38.40;;;17.95;;
30874;SDS011;17581;43.222;27.924;2023-01-04T15:58:32;31.35;;;16.45;;
30874;SDS011;17581;43.222;27.924;2023-01-04T16:00:58;57.75;;;21.10;;
30874;SDS011;17581;43.222;27.924;2023-01-04T16:03:23;30.30;;;15.85;;
30874;SDS011;17581;43.222;27.924;2023-01-04T16:05:49;36.03;;;17.98;;
30874;SDS011;17581;43.222;27.924;2023-01-04T16:08:14;47.20;;;22.23;;
30874;SDS011;17581;43.222;27.924;2023-01-04T16:10:40;40.42;;;16.98;;
30874;SDS011;17581;43.222;27.924;2023-01-04T16:13:05;48.15;;;18.10;;
30874;SDS011;17581;43.222;27.924;2023-01-04T16:15:31;44.90;;;18.45;;
30874;SDS011;17581;43.222;27.924;2023-01-04T16:17:56;120.78;;;62.05;;
30874;SDS011;17581;43.222;27.924;2023-01-04T16:20:21;43.53;;;19.40;;
30874;SDS011;17581;43.222;27.924;2023-01-04T16:22:47;46.05;;;16.77;;
30874;SDS011;17581;43.222;27.924;2023-01-04T16:25:12;34.20;;;18.38;;
30874;SDS011;17581;43.222;27.924;2023-01-04T16:27:38;32.72;;;17.48;;
30874;SDS011;17581;43.222;27.924;2023-01-04T16:30:05;26.58;;;16.88;;
30874;SDS011;17581;43.222;27.924;2023-01-04T16:32:33;28.10;;;16.17;;
30874;SDS011;17581;43.222;27.924;2023-01-04T16:34:59;25.08;;;15.65;;
30874;SDS011;17581;43.222;27.924;2023-01-04T16:37:25;37.42;;;17.95;;
30874;SDS011;17581;43.222;27.924;2023-01-04T16:39:52;28.92;;;15.98;;
30874;SDS011;17581;43.222;27.924;2023-01-04T16:42:18;39.75;;;16.83;;
30874;SDS011;17581;43.222;27.924;2023-01-04T16:44:43;38.65;;;17.17;;
30874;SDS011;17581;43.222;27.924;2023-01-04T16:47:09;34.25;;;17.55;;
30874;SDS011;17581;43.222;27.924;2023-01-04T16:49:34;36.47;;;20.00;;
30874;SDS011;17581;43.222;27.924;2023-01-04T16:52:00;53.92;;;20.13;;
30874;SDS011;17581;43.222;27.924;2023-01-04T16:54:25;38.20;;;20.35;;
30874;SDS011;17581;43.222;27.924;2023-01-04T16:56:51;30.23;;;19.73;;
30874;SDS011;17581;43.222;27.924;2023-01-04T16:59:18;32.33;;;18.65;;